Time;durP1;ratioP1;P1;durP2;ratioP2;P2;SDS_P1;SDS_P2;PMS_P1;PMS_P2;Temp;Humidity;BMP_temperature;BMP_pressure;BME280_temperature;BME280_humidity;BME280_pressure;Samples;Min_cycle;Max_cycle;Signal;HPM_P1;HPM_P2
2021/09/05 00:00:00;;;;;;;17.15;9.45;;;;;;;16.39;67.67;101962.75;10487272;28;20044;-80
2021/09/05 00:05:00;;;;;;;12.45;9.38;;;;;;;16.70;67.25;102013.22;10503312;28;20091;-80
2021/09/05 00:10:01;;;;;;;20.42;10.63;;;;;;;16.06;66.83;101899.88;10487878;28;20049;-80
2021/09/05 00:15:03;;;;;;;17.02;10.20;;;;;;;15.70;67.52;101875.69;10504940;28;20044;-81
2021/09/05 00:20:04;;;;;;;15.40;9.90;;;;;;;15.77;67.14;101901.13;10486905;28;20028;-80
2021/09/05 00:25:40;;;;;;;23.80;11.18;;;;;;;16.17;68.04;101980.41;10486352;28;20086;-80
2021/09/05 00:30:40;;;;;;;11.90;9.60;;;;;;;16.35;67.88;102018.91;10503147;28;20400;-80
2021/09/05 00:35:40;;;;;;;12.68;9.95;;;;;;;15.92;67.96;101955.56;10485258;28;20044;-80
2021/09/05 00:40:40;;;;;;;17.70;10.30;;;;;;;16.35;67.63;102013.44;10502930;28;20040;-80
2021/09/05 00:45:41;;;;;;;21.38;9.20;;;;;;;16.27;67.85;102009.03;10502795;28;20048;-80
2021/09/05 00:50:42;;;;;;;23.75;11.15;;;;;;;16.21;68.02;102006.28;10503227;28;20056;-80
2021/09/05 00:55:42;;;;;;;16.77;8.68;;;;;;;16.20;67.76;102026.44;10503377;28;20085;-80
2021/09/05 01:00:43;;;;;;;9.60;8.63;;;;;;;16.15;67.54;102001.66;10488106;28;20472;-81
2021/09/05 01:05:43;;;;;;;19.70;10.15;;;;;;;15.55;67.66;101917.63;10473467;28;20028;-81
2021/09/05 01:10:44;;;;;;;20.40;9.40;;;;;;;15.71;67.57;101967.50;10484969;28;20029;-80
2021/09/05 01:15:44;;;;;;;13.23;10.80;;;;;;;15.79;67.66;101987.28;10501606;28;20080;-80
2021/09/05 01:20:44;;;;;;;14.13;10.55;;;;;;;15.18;67.22;101866.28;10501718;28;20403;-81
2021/09/05 01:25:53;;;;;;;13.45;9.25;;;;;;;16.04;67.26;102024.94;10483942;28;20041;-80
2021/09/05 01:30:54;;;;;;;22.98;10.38;;;;;;;15.74;67.56;102000.69;10467785;28;20033;-80
2021/09/05 01:35:54;;;;;;;15.32;10.18;;;;;;;15.92;67.32;102046.56;10501504;28;20450;-80
2021/09/05 01:40:54;;;;;;;18.70;11.38;;;;;;;15.77;67.25;102024.03;10501498;28;20036;-80
2021/09/05 01:45:55;;;;;;;15.23;11.13;;;;;;;15.89;67.15;102035.19;10483546;28;20476;-80
2021/09/05 01:50:56;;;;;;;13.98;9.52;;;;;;;15.82;66.91;102037.88;10501441;28;20070;-80
2021/09/05 01:55:56;;;;;;;19.15;11.73;;;;;;;15.79;67.02;102038.28;10482476;28;20075;-80
2021/09/05 02:01:00;;;;;;;20.20;11.05;;;;;;;15.62;66.99;102024.13;10500204;28;20043;-81
2021/09/05 02:06:01;;;;;;;24.40;10.30;;;;;;;15.77;66.53;102045.88;10482784;28;20055;-80
2021/09/05 02:11:02;;;;;;;18.40;10.93;;;;;;;15.63;66.96;102057.72;10499884;28;20033;-80
2021/09/05 02:16:02;;;;;;;20.45;12.10;;;;;;;15.33;67.74;102017.06;10498904;28;20047;-81
2021/09/05 02:21:02;;;;;;;16.45;10.80;;;;;;;15.30;67.56;102022.94;10497886;28;20373;-80
2021/09/05 02:26:03;;;;;;;31.63;11.27;;;;;;;15.46;68.33;102063.53;10499113;28;20090;-80
2021/09/05 02:31:03;;;;;;;17.70;11.60;;;;;;;14.78;68.46;101958.81;10498779;28;20059;-80
2021/09/05 02:36:04;;;;;;;18.23;12.13;;;;;;;15.40;68.40;102061.59;10480844;28;20028;-80
2021/09/05 02:41:04;;;;;;;17.52;11.90;;;;;;;15.13;68.63;102040.69;10500601;28;20036;-80
2021/09/05 02:46:05;;;;;;;12.10;10.40;;;;;;;14.64;68.85;101949.69;10499013;28;20136;-80
2021/09/05 02:51:05;;;;;;;16.70;11.18;;;;;;;15.18;69.16;102054.53;10481744;28;20083;-80
2021/09/05 02:56:05;;;;;;;22.15;11.75;;;;;;;15.23;69.04;102060.25;10498552;28;20545;-80
2021/09/05 03:01:06;;;;;;;13.45;10.40;;;;;;;14.45;68.60;101934.84;10497651;28;20036;-80
2021/09/05 03:06:07;;;;;;;18.08;13.35;;;;;;;15.02;68.91;102061.16;10499651;28;20116;-80
2021/09/05 03:11:07;;;;;;;27.25;14.50;;;;;;;14.99;68.72;102045.19;10480869;28;20033;-80
2021/09/05 03:16:07;;;;;;;25.30;14.13;;;;;;;15.00;68.83;102045.00;10479546;28;20123;-80
2021/09/05 03:21:08;;;;;;;24.05;12.77;;;;;;;14.72;69.56;102016.88;10480686;28;20032;-80
2021/09/05 03:26:09;;;;;;;21.25;13.80;;;;;;;14.75;69.77;102052.78;10463253;28;20032;-80
2021/09/05 03:31:09;;;;;;;15.65;10.82;;;;;;;12.63;69.15;101704.88;10479574;28;20024;-80
2021/09/05 03:36:10;;;;;;;20.17;13.73;;;;;;;14.89;69.17;102046.38;10497909;28;20456;-81
2021/09/05 03:41:10;;;;;;;20.83;13.50;;;;;;;14.83;68.86;102047.16;10497520;28;20045;-80
2021/09/05 03:46:11;;;;;;;26.33;13.73;;;;;;;14.74;68.34;102032.00;10496494;28;20051;-80
2021/09/05 03:51:11;;;;;;;19.75;11.48;;;;;;;14.61;68.81;102018.25;10497008;28;20064;-80
2021/09/05 03:56:12;;;;;;;20.63;13.45;;;;;;;14.75;68.82;102038.28;10497410;28;20344;-80
2021/09/05 04:01:12;;;;;;;31.75;13.95;;;;;;;14.62;68.50;102041.75;10496611;28;20086;-80
2021/09/05 04:06:13;;;;;;;22.70;14.18;;;;;;;14.64;69.26;102048.69;10479867;28;20033;-80
2021/09/05 04:11:14;;;;;;;22.95;16.25;;;;;;;14.25;69.11;102010.13;10496769;28;20033;-80
2021/09/05 04:16:15;;;;;;;18.70;14.07;;;;;;;14.52;69.81;102049.44;10502717;28;20442;-81
2021/09/05 04:21:15;;;;;;;29.10;13.90;;;;;;;14.08;69.77;101988.59;10504257;28;20032;-79
2021/09/05 04:26:15;;;;;;;21.63;14.82;;;;;;;14.38;69.89;102024.72;10504294;28;20060;-79
2021/09/05 04:31:16;;;;;;;20.23;14.50;;;;;;;14.42;68.82;102052.41;10503534;28;20115;-80
2021/09/05 04:36:16;;;;;;;21.23;14.55;;;;;;;14.21;69.27;102036.09;10503429;28;20041;-80
2021/09/05 04:41:17;;;;;;;27.00;14.52;;;;;;;14.26;70.10;102020.81;10503792;28;20040;-80
2021/09/05 04:46:17;;;;;;;21.80;13.73;;;;;;;14.04;68.89;102000.06;10503522;28;20135;-80
2021/09/05 04:51:17;;;;;;;25.17;13.70;;;;;;;14.53;68.14;102054.66;10503316;28;20099;-80
2021/09/05 04:56:18;;;;;;;19.30;12.35;;;;;;;13.93;68.11;101968.75;10503159;28;20464;-82
2021/09/05 05:01:18;;;;;;;32.72;14.93;;;;;;;13.85;67.12;101972.44;10503083;28;20067;-80
2021/09/05 05:06:18;;;;;;;24.05;13.55;;;;;;;13.89;67.11;101981.06;10503118;28;20040;-80
2021/09/05 05:11:19;;;;;;;20.60;14.15;;;;;;;14.43;67.33;102074.03;10484942;28;20362;-79
2021/09/05 05:16:19;;;;;;;21.02;14.75;;;;;;;14.34;66.91;102074.38;10501314;28;20036;-80
2021/09/05 05:21:20;;;;;;;18.73;13.23;;;;;;;14.54;66.59;102094.50;10483742;28;20060;-81
2021/09/05 05:26:21;;;;;;;22.98;12.85;;;;;;;13.82;66.21;101977.44;10500623;28;20044;-80
2021/09/05 05:31:21;;;;;;;30.02;15.05;;;;;;;14.26;65.98;102058.97;10483992;28;20044;-80
2021/09/05 05:36:21;;;;;;;34.00;16.02;;;;;;;14.60;66.53;102107.34;10501352;28;20041;-80
2021/09/05 05:41:22;;;;;;;18.42;13.07;;;;;;;14.70;66.39;102107.03;10500695;28;20090;-80
2021/09/05 05:46:31;;;;;;;18.27;13.80;;;;;;;14.03;65.69;102039.22;10482597;28;20037;-81
2021/09/05 05:51:31;;;;;;;26.75;14.88;;;;;;;14.70;65.82;102078.94;10457279;28;20049;-80
2021/09/05 05:56:32;;;;;;;18.50;13.73;;;;;;;15.06;66.54;102106.94;10441873;28;20041;-80
2021/09/05 06:01:32;;;;;;;28.52;14.88;;;;;;;15.94;65.04;101995.28;10446590;28;20042;-80
2021/09/05 06:06:33;;;;;;;22.08;16.00;;;;;;;17.82;63.20;102119.00;10417308;28;20034;-81
2021/09/05 06:11:34;;;;;;;20.65;11.93;;;;;;;18.55;61.39;102113.16;10417993;28;20064;-80
2021/09/05 06:16:34;;;;;;;17.48;10.98;;;;;;;18.97;60.67;102116.25;10417181;28;20057;-81
2021/09/05 06:21:43;;;;;;;12.77;10.82;;;;;;;19.39;60.79;102112.91;10399555;28;20038;-80
2021/09/05 06:26:44;;;;;;;19.75;9.20;;;;;;;20.16;60.01;102118.81;10400525;28;20393;-77
2021/09/05 06:31:44;;;;;;;10.88;8.43;;;;;;;20.38;59.06;102114.47;10416588;28;20045;-74
2021/09/05 06:36:44;;;;;;;11.45;10.20;;;;;;;20.77;56.91;102128.78;10415846;28;20037;-72
2021/09/05 06:41:45;;;;;;;21.05;10.18;;;;;;;21.01;58.04;102115.88;10397945;28;20081;-72
2021/09/05 06:46:45;;;;;;;13.90;9.63;;;;;;;22.14;56.85;102129.44;10415212;28;20124;-72
2021/09/05 06:51:46;;;;;;;17.33;9.02;;;;;;;23.17;54.83;102144.91;10445377;28;20056;-71
2021/09/05 06:56:46;;;;;;;15.25;9.55;;;;;;;23.70;53.22;102137.16;10398880;28;20125;-82
2021/09/05 07:01:46;;;;;;;13.70;9.05;;;;;;;24.12;53.57;102154.03;10477739;28;20111;-83
2021/09/05 07:06:47;;;;;;;9.27;8.38;;;;;;;24.24;51.58;102131.75;10498112;28;20036;-83
2021/09/05 07:11:47;;;;;;;15.15;9.02;;;;;;;24.80;52.21;102137.06;10498686;28;20082;-84
2021/09/05 07:16:48;;;;;;;14.60;7.53;;;;;;;24.04;49.84;102012.53;10497488;28;20756;-82
2021/09/05 07:21:48;;;;;;;13.35;8.55;;;;;;;24.66;50.45;102144.94;10498070;28;20029;-82
2021/09/05 07:26:48;;;;;;;14.93;8.82;;;;;;;24.54;49.79;102058.44;10497746;28;20028;-84
2021/09/05 07:31:49;;;;;;;17.15;8.25;;;;;;;24.55;49.16;102115.50;10498169;28;20424;-83
2021/09/05 07:36:49;;;;;;;18.45;8.77;;;;;;;24.35;51.63;102121.63;10479905;28;20032;-83
2021/09/05 07:41:50;;;;;;;7.22;6.32;;;;;;;24.50;50.37;102148.66;10497297;28;20432;-82
2021/09/05 07:46:53;;;;;;;13.38;6.65;;;;;;;24.64;51.73;102115.88;10496767;28;20068;-83
2021/09/05 07:51:53;;;;;;;10.55;7.28;;;;;;;25.17;51.17;102164.81;10504718;28;20585;-82
2021/09/05 07:56:54;;;;;;;12.52;7.85;;;;;;;25.43;49.59;102162.25;10488319;28;20078;-82
2021/09/05 08:01:54;;;;;;;14.07;8.70;;;;;;;25.39;46.84;102174.97;10506404;28;20537;-83
2021/09/05 08:07:11;;;;;;;10.90;7.63;;;;;;;25.20;49.98;102169.84;10505809;28;20040;-83
2021/09/05 08:12:11;;;;;;;9.27;8.27;;;;;;;25.16;51.56;102109.66;10489603;28;20102;-81
2021/09/05 08:17:12;;;;;;;8.45;6.28;;;;;;;25.17;49.10;102169.53;10503238;28;20066;-77
2021/09/05 08:22:12;;;;;;;9.50;7.88;;;;;;;25.36;49.54;102175.50;10504450;28;20028;-77
2021/09/05 08:27:12;;;;;;;7.82;6.88;;;;;;;25.32;50.84;102179.91;10503379;28;20037;-78
2021/09/05 08:32:13;;;;;;;13.77;8.68;;;;;;;25.03;49.92;102156.09;10504026;28;20028;-78
2021/09/05 08:37:22;;;;;;;12.52;7.43;;;;;;;25.41;47.39;102198.56;10503430;28;20379;-78
2021/09/05 08:42:27;;;;;;;11.88;8.20;;;;;;;24.03;47.54;102047.66;10448958;28;20052;-77
2021/09/05 08:47:35;;;;;;;9.57;8.43;;;;;;;25.24;48.13;102201.50;10521490;28;20403;-76
2021/09/05 08:52:36;;;;;;;12.85;7.65;;;;;;;25.16;48.28;102185.34;10545161;28;20055;-81
2021/09/05 08:57:36;;;;;;;14.85;9.25;;;;;;;25.26;50.33;102188.19;10507483;28;20342;-80
2021/09/05 09:02:58;;;;;;;12.13;7.47;;;;;;;23.28;48.73;101855.72;10523635;28;20522;-82
2021/09/05 09:08:00;;;;;;;33.92;8.90;;;;;;;25.28;46.37;102168.53;10543726;28;20040;-76
2021/09/05 09:13:01;;;;;;;10.40;7.15;;;;;;;25.91;46.88;102188.94;10490287;28;20503;-79
2021/09/05 09:18:04;;;;;;;11.95;6.90;;;;;;;26.36;47.45;102173.56;10502376;28;20055;-76
2021/09/05 09:23:06;;;;;;;12.98;6.95;;;;;;;26.19;46.60;102182.09;10467144;28;20036;-79
2021/09/05 09:28:46;;;;;;;23.25;7.85;;;;;;;26.39;45.50;102188.88;10501108;28;20040;-77
2021/09/05 09:33:49;;;;;;;10.77;7.05;;;;;;;26.30;45.22;102187.72;10488359;28;20115;-82
2021/09/05 09:39:04;;;;;;;15.05;8.60;;;;;;;25.71;45.48;102119.41;10502495;28;20029;-77
2021/09/05 09:44:36;;;;;;;14.43;8.00;;;;;;;25.98;46.07;102169.25;10485230;28;20035;-79
2021/09/05 09:49:47;;;;;;;8.45;6.45;;;;;;;27.02;46.05;102189.53;10478725;28;20105;-78
2021/09/05 09:54:47;;;;;;;11.80;6.72;;;;;;;26.73;43.95;102193.97;10482693;28;20025;-80
2021/09/05 09:59:48;;;;;;;12.10;7.60;;;;;;;27.34;41.55;102188.47;10501429;28;20078;-81
2021/09/05 10:04:49;;;;;;;13.90;8.13;;;;;;;26.46;43.49;102025.53;10500233;28;20033;-77
2021/09/05 10:09:50;;;;;;;9.68;7.40;;;;;;;27.69;41.60;102198.69;10483405;28;20126;-76
2021/09/05 10:14:52;;;;;;;14.02;8.45;;;;;;;27.24;40.66;102082.78;10499827;28;20059;-78
2021/09/05 10:19:55;;;;;;;12.27;7.28;;;;;;;28.07;42.95;102201.97;10467915;28;20032;-78
2021/09/05 10:24:55;;;;;;;12.15;7.88;;;;;;;27.77;39.42;102184.25;10508311;28;20040;-82
2021/09/05 10:30:05;;;;;;;10.00;7.75;;;;;;;27.87;41.54;102208.44;10483543;28;20068;-79
2021/09/05 10:35:28;;;;;;;9.60;6.60;;;;;;;28.61;40.61;102191.97;10500556;28;20035;-82
2021/09/05 10:40:40;;;;;;;12.18;7.35;;;;;;;27.89;41.42;102099.56;10498782;28;20032;-80
2021/09/05 10:45:42;;;;;;;6.53;6.00;;;;;;;28.57;37.80;102190.91;10498785;28;20031;-80
2021/09/05 10:50:43;;;;;;;6.40;5.80;;;;;;;28.83;38.39;102178.44;10463593;28;20446;-80
2021/09/05 10:56:10;;;;;;;7.05;5.93;;;;;;;28.41;42.37;102107.38;10480890;28;20044;-80
2021/09/05 11:01:10;;;;;;;;;;;;;;;28.92;42.40;102179.50;10482159;28;20511;-79
2021/09/05 11:06:39;;;;;;;10.48;7.38;;;;;;;29.44;42.36;102180.72;10497858;28;19944;-79
2021/09/05 11:12:06;;;;;;;6.07;5.47;;;;;;;30.05;40.89;102176.44;10498944;28;20199;-76
2021/09/05 11:17:07;;;;;;;7.05;6.35;;;;;;;30.77;37.62;102186.69;10471941;28;20034;-80
2021/09/05 11:22:07;;;;;;;6.10;5.60;;;;;;;30.82;35.56;102181.00;10539510;28;20036;-78
2021/09/05 11:27:09;;;;;;;13.27;5.82;;;;;;;31.17;34.55;102168.38;10529866;28;20036;-80
2021/09/05 11:32:13;;;;;;;6.03;5.45;;;;;;;30.69;36.65;102157.41;10547368;28;20044;-78
2021/09/05 11:37:13;;;;;;;11.27;5.82;;;;;;;29.79;36.22;102175.91;10466640;28;20088;-83
2021/09/05 11:42:15;;;;;;;9.43;6.40;;;;;;;29.72;38.22;102136.38;10528905;28;20508;-77
2021/09/05 11:47:19;;;;;;;5.88;5.43;;;;;;;31.00;36.62;102173.72;10540862;28;20028;-78
2021/09/05 11:52:23;;;;;;;8.55;5.85;;;;;;;31.61;34.16;102172.63;10506175;28;20040;-78
2021/09/05 11:57:24;;;;;;;13.73;5.80;;;;;;;31.23;34.40;102130.78;10488372;28;20415;-79
2021/09/05 12:02:37;;;;;;;6.68;5.72;;;;;;;32.35;34.88;102154.88;10505724;28;20086;-79
2021/09/05 12:07:39;;;;;;;12.38;5.75;;;;;;;32.87;33.72;102172.19;10506557;28;20039;-81
2021/09/05 12:12:40;;;;;;;6.40;5.00;;;;;;;31.69;39.54;102078.69;10510447;28;20083;-80
2021/09/05 12:17:53;;;;;;;6.13;5.60;;;;;;;31.94;41.88;102150.16;10511818;28;20028;-79
2021/09/05 12:22:56;;;;;;;14.52;4.97;;;;;;;31.76;35.41;102072.66;10510980;28;20492;-80
2021/09/05 12:27:56;;;;;;;7.88;5.38;;;;;;;32.78;30.60;102165.69;10495000;28;20047;-79
2021/09/05 12:33:16;;;;;;;8.18;5.70;;;;;;;33.01;35.09;102128.06;10545310;28;20035;-80
2021/09/05 12:38:46;;;;;;;8.32;5.20;;;;;;;32.11;35.23;102157.94;10510996;28;20569;-79
2021/09/05 12:43:53;;;;;;;7.45;5.25;;;;;;;32.07;32.12;102166.16;10512022;28;20556;-79
2021/09/05 12:48:54;;;;;;;8.10;4.13;;;;;;;31.31;31.43;102167.59;10510114;28;20497;-77
2021/09/05 12:54:00;;;;;;;6.07;4.90;;;;;;;31.29;30.51;102159.50;10544297;28;20032;-78
2021/09/05 12:59:01;;;;;;;5.07;4.68;;;;;;;32.05;31.13;102073.16;10526907;28;20047;-80
2021/09/05 13:04:04;;;;;;;8.40;4.57;;;;;;;31.65;30.92;102063.63;10544320;28;20040;-80
2021/09/05 13:09:05;;;;;;;6.70;4.50;;;;;;;32.07;31.10;102120.47;10525886;28;20058;-80
2021/09/05 13:14:05;;;;;;;6.85;5.57;;;;;;;32.55;32.96;102136.78;10545068;28;20031;-78
2021/09/05 13:19:05;;;;;;;20.13;5.25;;;;;;;32.35;29.77;102094.00;10543760;28;20036;-81
2021/09/05 13:24:29;;;;;;;5.28;4.00;;;;;;;32.40;31.33;102084.66;10543639;28;20361;-81
2021/09/05 13:29:32;;;;;;;5.47;4.93;;;;;;;32.81;30.23;102140.63;10543460;28;20036;-81
2021/09/05 13:34:56;;;;;;;7.25;4.07;;;;;;;32.58;31.82;102117.34;10546653;28;20032;-81
2021/09/05 13:39:56;;;;;;;6.90;5.05;;;;;;;31.90;30.01;101964.22;10544514;28;20044;-81
2021/09/05 13:44:58;;;;;;;6.43;5.82;;;;;;;31.87;30.33;102124.50;10525917;28;20092;-80
2021/09/05 13:49:59;;;;;;;5.30;4.85;;;;;;;31.58;31.33;102114.47;10508077;28;20052;-81
2021/09/05 13:55:00;;;;;;;10.02;5.57;;;;;;;31.84;30.72;102108.31;10543166;28;20036;-80
2021/09/05 14:00:00;;;;;;;5.38;4.85;;;;;;;32.20;30.96;102091.59;10525394;28;20110;-80
2021/09/05 14:05:09;;;;;;;6.38;5.28;;;;;;;31.33;33.31;102073.81;10542737;28;20534;-81
2021/09/05 14:10:12;;;;;;;5.90;5.30;;;;;;;31.01;33.74;102049.47;10525619;28;20036;-79
2021/09/05 14:15:13;;;;;;;7.40;6.75;;;;;;;31.52;32.12;102106.47;10523622;28;20039;-80
2021/09/05 14:20:13;;;;;;;8.73;5.20;;;;;;;30.92;32.68;102088.56;10522780;28;20081;-80
2021/09/05 14:25:14;;;;;;;7.53;5.80;;;;;;;30.82;32.58;102029.97;10542140;28;20468;-80
2021/09/05 14:56:19;;;;;;;6.97;6.25;;;;;;;29.25;34.73;102100.84;10517945;28;20024;-78
2021/09/05 15:01:26;;;;;;;10.63;5.35;;;;;;;28.70;37.71;102103.84;10498225;28;20039;-78
2021/09/05 15:11:48;;;;;;;6.75;5.05;;;;;;;27.40;38.68;102109.44;10482908;28;20036;-78
2021/09/05 15:16:54;;;;;;;5.30;4.20;;;;;;;27.49;39.83;102110.53;10479388;28;20037;-77
2021/09/05 15:22:08;;;;;;;10.02;5.10;;;;;;;26.95;39.21;102108.38;10479618;28;20424;-77
2021/09/05 15:27:12;;;;;;;5.80;5.03;;;;;;;27.04;38.57;102112.25;10497857;28;20116;-77
2021/09/05 15:37:44;;;;;;;5.97;5.35;;;;;;;26.64;39.56;102111.16;10482328;28;20472;-77
2021/09/05 15:53:42;;;;;;;8.38;5.68;;;;;;;26.19;42.76;102100.75;10497566;28;20096;-78
2021/09/05 15:58:50;;;;;;;6.55;5.90;;;;;;;24.05;40.79;101799.19;10465597;28;20028;-78
2021/09/05 16:19:41;;;;;;;9.30;5.13;;;;;;;25.53;44.39;102093.00;10488546;28;20072;-78
2021/09/05 16:24:41;;;;;;;15.88;6.13;;;;;;;25.60;44.22;102123.25;10471042;28;20032;-78
2021/09/05 16:29:49;;;;;;;10.02;7.75;;;;;;;24.34;44.78;101951.91;10487506;28;20476;-78
2021/09/05 16:45:14;;;;;;;6.57;5.97;;;;;;;24.94;46.26;102112.50;10496904;28;20040;-78
2021/09/05 16:50:15;;;;;;;11.02;7.65;;;;;;;24.74;46.82;102108.47;10484663;28;20053;-78
2021/09/05 16:55:15;;;;;;;14.43;7.82;;;;;;;24.65;46.44;102129.44;10479482;28;20476;-77
2021/09/05 17:00:16;;;;;;;9.63;5.88;;;;;;;24.51;47.44;102125.44;10502734;28;20106;-78
2021/09/05 17:05:16;;;;;;;12.75;6.60;;;;;;;24.37;46.41;102109.16;10504735;28;20037;-78
2021/09/05 17:10:17;;;;;;;8.13;6.47;;;;;;;24.09;46.91;102096.44;10505067;28;20186;-78
2021/09/05 17:15:17;;;;;;;10.65;6.75;;;;;;;24.16;47.04;102134.97;10502136;28;20064;-78
2021/09/05 17:20:17;;;;;;;21.75;7.55;;;;;;;23.32;46.28;102000.56;10483626;28;20132;-77
2021/09/05 17:25:18;;;;;;;15.60;6.22;;;;;;;24.11;47.06;102155.13;10467202;28;20059;-78
2021/09/05 17:30:18;;;;;;;10.95;7.75;;;;;;;23.77;46.70;102110.16;10501643;28;20360;-78
2021/09/05 17:35:18;;;;;;;9.95;6.68;;;;;;;23.82;47.08;102145.34;10501183;28;20110;-78
2021/09/05 17:40:19;;;;;;;15.60;7.18;;;;;;;23.42;47.27;102111.31;10501163;28;20127;-78
2021/09/05 17:45:20;;;;;;;15.68;8.93;;;;;;;23.32;47.32;102110.31;10483787;28;20499;-77
2021/09/05 17:50:20;;;;;;;11.93;7.22;;;;;;;23.49;47.41;102176.66;10466756;28;20053;-77
2021/09/05 17:55:20;;;;;;;10.80;7.68;;;;;;;22.91;47.47;102121.53;10502777;28;20059;-78
2021/09/05 18:00:21;;;;;;;10.25;6.10;;;;;;;22.96;47.78;102165.00;10483245;28;20036;-77
2021/09/05 18:05:23;;;;;;;12.80;7.60;;;;;;;22.90;48.24;102183.38;10450669;28;20055;-78
2021/09/05 18:10:23;;;;;;;9.55;5.85;;;;;;;22.75;48.52;102191.41;10499600;28;20369;-78
2021/09/05 18:15:25;;;;;;;7.85;5.85;;;;;;;22.46;48.86;102169.31;10499927;28;20029;-78
2021/09/05 18:20:25;;;;;;;12.43;7.57;;;;;;;20.73;48.90;101926.59;10464516;28;20036;-78
2021/09/05 18:25:26;;;;;;;14.75;9.02;;;;;;;22.16;49.72;102199.88;10481286;28;20039;-78
2021/09/05 18:30:26;;;;;;;14.60;7.07;;;;;;;;;;10480776;28;20033;-78
2021/09/05 18:35:26;;;;;;;11.07;8.48;;;;;;;21.86;50.70;102211.06;10498560;28;20071;-77
2021/09/05 18:40:27;;;;;;;18.08;8.35;;;;;;;21.69;50.97;102229.41;10498211;28;20460;-78
2021/09/05 18:45:27;;;;;;;14.68;8.45;;;;;;;21.54;51.41;102219.69;10498420;28;20034;-78
2021/09/05 18:50:28;;;;;;;14.23;8.15;;;;;;;20.82;51.68;102122.56;10480548;28;20044;-78
2021/09/05 18:55:29;;;;;;;14.52;8.45;;;;;;;20.62;52.77;102120.13;10480470;28;20037;-78
2021/09/05 19:00:29;;;;;;;12.93;7.65;;;;;;;21.18;52.24;102220.69;10498323;28;20044;-77
2021/09/05 19:05:30;;;;;;;12.02;8.07;;;;;;;18.90;53.03;101895.91;10480296;28;20040;-78
2021/09/05 19:10:31;;;;;;;10.50;8.48;;;;;;;20.85;53.63;102227.53;10499702;28;20116;-78
2021/09/05 19:15:31;;;;;;;11.57;9.25;;;;;;;19.94;53.86;102116.56;10481818;28;20412;-79
2021/09/05 19:20:33;;;;;;;18.42;10.45;;;;;;;20.55;54.14;102213.78;10497650;28;20033;-78
2021/09/05 19:25:34;;;;;;;10.82;7.63;;;;;;;20.59;54.42;102230.66;10498411;28;20021;-78
2021/09/05 19:30:35;;;;;;;11.82;7.85;;;;;;;20.52;54.47;102238.19;10498157;28;20036;-77
2021/09/05 19:35:37;;;;;;;15.00;8.95;;;;;;;19.71;55.23;102139.22;10497767;28;20040;-78
2021/09/05 19:40:37;;;;;;;11.95;7.68;;;;;;;20.39;54.92;102250.16;10497412;28;20108;-78
2021/09/05 19:45:37;;;;;;;12.40;8.32;;;;;;;20.17;54.58;102222.28;10483629;28;20047;-77
2021/09/05 19:50:38;;;;;;;12.93;8.52;;;;;;;20.35;53.88;102252.50;10505304;28;20057;-78
2021/09/05 19:55:42;;;;;;;11.98;8.20;;;;;;;20.23;54.03;102246.13;10505552;28;20043;-79
2021/09/05 20:00:42;;;;;;;12.52;7.82;;;;;;;20.14;54.54;102256.56;10505793;28;20036;-78
2021/09/05 20:05:42;;;;;;;13.18;9.23;;;;;;;20.02;54.54;102261.13;10505089;28;20531;-78
2021/09/05 20:10:46;;;;;;;13.25;8.60;;;;;;;19.84;54.41;102247.34;10507718;28;20036;-77
2021/09/05 20:15:46;;;;;;;12.30;7.82;;;;;;;19.88;54.28;102276.94;10488410;28;20047;-77
2021/09/05 20:20:46;;;;;;;19.00;9.40;;;;;;;19.64;54.51;102258.53;10504399;28;20465;-78
2021/09/05 20:25:47;;;;;;;14.43;9.25;;;;;;;19.51;54.89;102249.31;10469625;28;20358;-77
2021/09/05 20:30:47;;;;;;;11.88;8.10;;;;;;;19.62;54.95;102275.25;10503614;28;20048;-77
2021/09/05 20:35:51;;;;;;;20.23;9.98;;;;;;;19.06;55.13;102179.97;10503969;28;20036;-80
2021/09/05 20:41:04;;;;;;;12.50;8.93;;;;;;;19.46;55.12;102262.03;10487668;28;20029;-79
2021/09/05 20:46:05;;;;;;;17.02;10.18;;;;;;;19.38;55.29;102260.41;10504326;28;20045;-83
2021/09/05 20:51:05;;;;;;;25.65;9.88;;;;;;;19.42;55.28;102285.53;10505384;28;20482;-79
2021/09/05 20:56:06;;;;;;;13.73;9.60;;;;;;;18.64;55.68;102182.34;10502527;28;20096;-79
2021/09/05 21:01:06;;;;;;;17.63;9.25;;;;;;;19.15;55.10;102255.53;10503436;28;20042;-79
2021/09/05 21:06:06;;;;;;;12.10;8.25;;;;;;;19.19;55.68;102291.63;10502037;28;20446;-79
2021/09/05 21:11:07;;;;;;;14.70;9.73;;;;;;;19.12;55.88;102294.41;10503174;28;20124;-79
2021/09/05 21:16:10;;;;;;;13.80;9.38;;;;;;;18.54;55.46;102228.63;10502844;28;20036;-80
2021/09/05 21:21:12;;;;;;;19.35;10.93;;;;;;;18.63;55.88;102246.47;10484785;28;20086;-79
2021/09/05 21:26:12;;;;;;;19.48;10.55;;;;;;;18.66;56.24;102269.91;10503318;28;20502;-79
2021/09/05 21:31:15;;;;;;;12.85;9.45;;;;;;;18.47;55.47;102242.31;10483944;28;20029;-79
2021/09/05 21:36:16;;;;;;;22.38;11.57;;;;;;;18.58;56.56;102282.81;10501723;28;20464;-79
2021/09/05 21:41:16;;;;;;;13.23;9.48;;;;;;;18.52;56.52;102283.69;10501000;28;20033;-79
2021/09/05 21:46:17;;;;;;;15.05;10.88;;;;;;;18.48;56.77;102293.41;10500726;28;20040;-79
2021/09/05 21:51:17;;;;;;;16.15;11.20;;;;;;;18.47;56.73;102297.19;10503242;28;20408;-78
2021/09/05 21:56:17;;;;;;;18.23;10.48;;;;;;;18.44;57.20;102294.03;10501133;28;20094;-82
2021/09/05 22:01:18;;;;;;;21.38;12.90;;;;;;;18.21;56.80;102254.25;10501323;28;20033;-79
2021/09/05 22:06:19;;;;;;;18.80;11.93;;;;;;;18.25;56.83;102277.44;10534445;28;20059;-79
2021/09/05 22:11:19;;;;;;;21.90;11.05;;;;;;;17.78;57.37;102221.88;10487490;28;20044;-78
2021/09/05 22:16:20;;;;;;;22.33;11.85;;;;;;;18.22;57.41;102299.81;10482902;28;20370;-79
2021/09/05 22:21:20;;;;;;;15.43;10.82;;;;;;;18.17;57.23;102310.56;10500120;28;20060;-79
2021/09/05 22:26:21;;;;;;;17.77;11.63;;;;;;;17.57;57.80;102228.38;10499366;28;20036;-78
2021/09/05 22:31:21;;;;;;;17.02;10.50;;;;;;;18.01;57.80;102302.78;10481539;28;20051;-79
2021/09/05 22:36:22;;;;;;;16.20;12.65;;;;;;;17.97;57.88;102301.53;10481671;28;20454;-79
2021/09/05 22:41:22;;;;;;;23.10;12.02;;;;;;;17.36;57.81;102215.78;10483671;28;20045;-78
2021/09/05 22:46:23;;;;;;;15.20;10.57;;;;;;;17.85;58.01;102321.34;10481351;28;20039;-79
2021/09/05 22:51:24;;;;;;;16.67;11.23;;;;;;;17.68;57.99;102300.91;10461894;28;20057;-79
2021/09/05 22:56:25;;;;;;;18.33;11.98;;;;;;;17.58;58.36;102294.97;10425979;28;20044;-78
2021/09/05 23:01:25;;;;;;;27.40;15.60;;;;;;;17.43;59.53;102306.16;10422825;28;20029;-79
2021/09/05 23:06:26;;;;;;;23.42;13.48;;;;;;;17.55;59.62;102304.47;10456685;28;20063;-79
2021/09/05 23:11:26;;;;;;;21.35;13.80;;;;;;;17.36;59.08;102272.44;10422349;28;20468;-79
2021/09/05 23:16:26;;;;;;;20.95;14.18;;;;;;;17.59;58.86;102303.00;10438787;28;20476;-79
2021/09/05 23:21:27;;;;;;;21.42;14.50;;;;;;;17.22;58.94;102252.41;10438152;28;20045;-78
2021/09/05 23:26:27;;;;;;;20.10;14.27;;;;;;;17.32;58.92;102282.94;10455978;28;20119;-79
2021/09/05 23:31:28;;;;;;;23.13;14.57;;;;;;;17.48;59.16;102303.59;10456535;28;20033;-79
2021/09/05 23:36:28;;;;;;;17.40;13.82;;;;;;;17.46;59.77;102310.38;10456418;28;20087;-79
2021/09/05 23:41:28;;;;;;;21.45;12.73;;;;;;;17.32;59.39;102299.38;10438777;28;20080;-79
2021/09/05 23:46:29;;;;;;;21.25;13.95;;;;;;;17.32;59.37;102304.84;10455304;28;20060;-79
2021/09/05 23:51:29;;;;;;;19.25;13.95;;;;;;;17.25;59.14;102319.59;10477181;28;20057;-79
2021/09/05 23:56:30;;;;;;;31.20;14.85;;;;;;;17.10;59.19;102295.13;10479165;28;20032;-79
